Buckingham, IA (50612)

2:57 AM CDT on April 19, 2015 (GMT -0500)
Lanehaven Farms, Inc. | | Change Station
CLOSE
Current Station
Personal Weather Station
Location: Waterloo, IA
Elevation: 950 ft
Nearby Weather Stations

Elev 950 ft 42.41 °N, 92.34 °W | Updated 2 minutes ago

Overcast
Overcast
53.1 °F
Feels Like 53.1 °F
N
6.0
Wind Variable Wind from SE
Gusts 15.0 mph

Today
High -- | Low -- °F
--% Chance of Precip.
Yesterday
High -- | Low -- °F
Precip. -- in
6:22 AM 7:55 PM
New Moon, 0% visible
Pressure 29.84 in
Visibility 2.5 miles
Clouds Scattered Clouds 3100 ft
Mostly Cloudy 4500 ft
Overcast 9000 ft
Dew Point 48 °F
Humidity 82%
Rainfall 0.16 in
Snow Depth Not available.
UV 0 out of 12
Pollen 6.50 out of 12
Air Quality Not available.
Flu Activity Local Activity
METAR KALO 190753Z 16011G17KT 2 1/2SM +TSRA SCT031 BKN045 OVC090 13/09 A2985 RMK AO2 LTG DSNT S RAB46 TSB47 SLP104 P0008 T01280094 $

More Conditions Fewer Conditions

Pressure 29.84 in
Visibility 2.5 miles
Clouds Scattered Clouds 3100 ft
Mostly Cloudy 4500 ft
Overcast 9000 ft
Dew Point 48 °F
Humidity 82%
Rainfall 0.16 in
Snow Depth Not available.
UV 0 out of 12
Pollen 6.50 out of 12
Air Quality Not available.
Flu Activity Local Activity
METAR KALO 190753Z 16011G17KT 2 1/2SM +TSRA SCT031 BKN045 OVC090 13/09 A2985 RMK AO2 LTG DSNT S RAB46 TSB47 SLP104 P0008 T01280094 $

More Conditions Fewer Conditions

10-Day Weather Forecast

Almanac

Astronomy

Apr. 19, 2015 Rise Set
Actual Time
Civil Twilight
Nautical Twilight
Astronomical Twilight
Moon
Length of Visible Light
Length of Day
Tomorrow will be .
, % of the Moon is Illuminated

Today's Extremes

State Highs State Lows

Community

WunderPhotos

Upload Photos

1,814,723 photos uploaded!

WunderBlogs® & News

Nearby

Air Quality

  Air Quality AQ Index Pollutant
Not available.

Snow Depth

Station Depth Elevation

Earthquake Activity

City Distance Mag. Time & Date
Minimum magnitude displayed is 2.5.

Coastal Water Temperatures

Place Temperature

Stations

Nearby Weather Stations

Station Location Temp. Windchill Dew Point Humidity Wind Precip. Elev Updated Type